Time;durP1;ratioP1;P1;durP2;ratioP2;P2;SDS_P1;SDS_P2;PMS_P1;PMS_P2;Temp;Humidity;BMP_temperature;BMP_pressure;BME280_temperature;BME280_humidity;BME280_pressure;Samples;Min_cycle;Max_cycle;Signal;HPM_P1;HPM_P2
2023/09/22 00:04:04;;;;;;;1.20;1.10;;;;;;;20.48;88.93;99394.09;20834942;28;20413;-58
2023/09/22 00:14:07;;;;;;;1.98;1.27;;;;;;;20.47;88.93;99392.41;20855139;28;20041;-59
2023/09/22 00:24:09;;;;;;;1.23;1.10;;;;;;;20.47;88.95;99403.22;20852649;28;20045;-59
2023/09/22 00:34:11;;;;;;;1.10;1.00;;;;;;;20.46;88.90;99405.09;20832194;28;20045;-58
2023/09/22 00:44:13;;;;;;;1.80;1.27;;;;;;;20.46;88.85;99417.78;20831598;28;20134;-58
2023/09/22 00:54:14;;;;;;;1.20;1.10;;;;;;;20.46;88.69;99421.31;20835140;28;20045;-59
2023/09/22 01:04:19;;;;;;;1.33;1.17;;;;;;;20.45;88.60;99408.00;20838106;28;20118;-58
2023/09/22 01:14:21;;;;;;;1.08;0.98;;;;;;;20.43;88.60;99402.75;20818173;28;20138;-59
2023/09/22 01:24:24;;;;;;;1.33;1.00;;;;;;;20.43;88.58;99421.69;20836446;28;20057;-59
2023/09/22 01:34:26;;;;;;;1.17;1.08;;;;;;;20.42;88.55;99425.41;20825874;28;20045;-58
2023/09/22 01:44:28;;;;;;;1.05;0.93;;;;;;;20.41;88.45;99426.44;20849616;28;20187;-58
2023/09/22 01:54:31;;;;;;;1.40;0.93;;;;;;;20.40;88.13;99425.63;20847258;28;20056;-58
2023/09/22 02:04:33;;;;;;;0.93;0.93;;;;;;;20.39;88.06;99406.88;20843245;28;20118;-58
2023/09/22 02:14:35;;;;;;;1.90;1.45;;;;;;;20.38;88.07;99400.66;20873769;28;20053;-58
2023/09/22 02:24:36;;;;;;;1.10;1.00;;;;;;;20.37;87.80;99412.50;20869039;28;20049;-58
2023/09/22 02:34:38;;;;;;;2.75;1.20;;;;;;;20.36;87.69;99429.72;20842248;28;21102;-58
2023/09/22 02:44:42;;;;;;;2.30;1.75;;;;;;;20.36;87.53;99455.91;20849064;28;20052;-59
2023/09/22 02:54:44;;;;;;;1.40;1.30;;;;;;;20.34;87.48;99458.81;20844370;28;20044;-58
2023/09/22 03:04:46;;;;;;;1.85;1.40;;;;;;;20.33;87.24;99465.25;20844027;28;20417;-59
2023/09/22 03:14:48;;;;;;;1.88;1.67;;;;;;;20.33;86.93;99489.56;20803513;28;20057;-59
2023/09/22 03:24:51;;;;;;;1.60;1.50;;;;;;;20.31;86.97;99485.34;20843793;28;20049;-58
2023/09/22 03:34:54;;;;;;;2.13;1.73;;;;;;;20.31;86.80;99493.47;20804320;28;20425;-58
2023/09/22 03:44:56;;;;;;;1.67;1.58;;;;;;;20.30;86.68;99495.31;20860421;28;20057;-58
2023/09/22 03:54:58;;;;;;;2.03;1.70;;;;;;;20.29;86.71;99501.75;20842833;28;20480;-59
2023/09/22 04:05:00;;;;;;;1.58;1.48;;;;;;;20.27;86.46;99511.91;20833652;28;20191;-58
2023/09/22 04:15:05;;;;;;;1.90;1.40;;;;;;;20.27;86.19;99501.94;20859403;28;20067;-58
2023/09/22 04:25:13;;;;;;;1.45;1.35;;;;;;;20.20;86.09;99489.34;20855841;28;20527;-58
2023/09/22 04:35:15;;;;;;;2.75;1.80;;;;;;;20.26;86.03;99510.22;20835894;28;20106;-58
2023/09/22 04:45:21;;;;;;;3.42;1.85;;;;;;;20.25;85.97;99513.97;20835633;28;20504;-58
2023/09/22 04:55:23;;;;;;;2.90;1.80;;;;;;;20.25;85.79;99509.41;20837393;28;20072;-59
2023/09/22 05:05:25;;;;;;;3.25;2.08;;;;;;;20.25;85.44;99530.16;20838323;28;20053;-58
2023/09/22 05:15:28;;;;;;;4.20;2.90;;;;;;;20.23;85.22;99538.47;20817902;28;20065;-58
2023/09/22 05:25:30;;;;;;;2.70;2.40;;;;;;;20.23;85.25;99548.44;20855795;28;20041;-58
2023/09/22 05:35:33;;;;;;;4.70;3.15;;;;;;;20.21;85.08;99564.84;20851956;28;20790;-60
2023/09/22 05:45:35;;;;;;;3.50;2.80;;;;;;;20.25;84.52;99563.44;20852791;28;20110;-59
2023/09/22 05:55:40;;;;;;;3.70;3.30;;;;;;;20.28;84.21;99562.22;20838947;28;20056;-59
2023/09/22 06:05:42;;;;;;;3.20;2.45;;;;;;;20.24;83.99;99575.28;20839472;28;20103;-59
2023/09/22 06:15:44;;;;;;;4.20;2.40;;;;;;;20.21;83.85;99583.75;20827458;28;20045;-59
2023/09/22 06:25:45;;;;;;;2.65;2.13;;;;;;;20.18;83.72;99602.19;20831471;28;20048;-59
2023/09/22 06:35:55;;;;;;;2.75;1.92;;;;;;;20.15;83.66;99600.72;20811303;28;20049;-59
2023/09/22 06:46:05;;;;;;;2.00;1.80;;;;;;;20.11;83.33;99600.22;20826887;28;20409;-59
2023/09/22 06:56:09;;;;;;;3.22;2.05;;;;;;;20.13;83.30;99614.41;20806485;28;20041;-59
2023/09/22 07:06:14;;;;;;;2.83;1.93;;;;;;;20.12;83.00;99604.59;20803932;28;20354;-59
2023/09/22 07:16:16;;;;;;;2.67;2.03;;;;;;;20.14;83.07;99620.66;20798784;28;20643;-58
2023/09/22 07:26:18;;;;;;;1.83;1.60;;;;;;;20.17;83.39;99631.09;20798240;28;20382;-59
2023/09/22 07:36:20;;;;;;;2.45;1.67;;;;;;;20.20;83.39;99630.72;20805992;28;20052;-59
2023/09/22 07:46:22;;;;;;;2.47;1.70;;;;;;;20.22;83.34;99644.88;20800401;28;20064;-59
2023/09/22 07:56:25;;;;;;;4.03;1.77;;;;;;;20.23;83.42;99657.38;20807645;28;20055;-58
2023/09/22 08:06:31;;;;;;;2.17;1.48;;;;;;;20.25;83.11;99676.09;20817555;28;20080;-59
2023/09/22 08:16:34;;;;;;;2.67;1.25;;;;;;;20.25;83.07;99663.44;20829283;28;20136;-58
2023/09/22 08:26:35;;;;;;;2.50;1.65;;;;;;;20.32;83.25;99679.75;20826406;28;20049;-58
2023/09/22 08:36:38;;;;;;;1.70;1.30;;;;;;;20.37;82.82;99687.31;20805122;28;20064;-59
2023/09/22 08:46:40;;;;;;;2.05;1.25;;;;;;;20.48;82.85;99697.69;20789954;28;20122;-59
2023/09/22 08:56:43;;;;;;;2.03;1.17;;;;;;;20.48;82.49;99692.28;20785828;28;20056;-58
2023/09/22 09:06:46;;;;;;;1.48;1.23;;;;;;;20.68;82.07;99718.81;20811860;28;20056;-59
2023/09/22 09:16:48;;;;;;;1.85;0.98;;;;;;;20.72;81.63;99720.13;20798657;28;20049;-59
2023/09/22 09:26:51;;;;;;;1.20;0.70;;;;;;;20.82;81.36;99703.69;20835006;28;20049;-59
2023/09/22 09:37:13;;;;;;;1.95;0.93;;;;;;;20.91;80.71;99702.56;20826896;28;20053;-59
2023/09/22 09:47:22;;;;;;;0.98;0.65;;;;;;;20.88;80.07;99702.94;20829469;28;20065;-59
2023/09/22 09:57:28;;;;;;;1.30;0.80;;;;;;;20.92;79.40;99709.66;20863389;28;20049;-58
2023/09/22 10:07:30;;;;;;;2.17;0.70;;;;;;;20.94;78.80;99710.31;20838014;28;20056;-59
2023/09/22 10:17:32;;;;;;;0.98;0.60;;;;;;;21.04;78.31;99701.06;20833874;28;20056;-59
2023/09/22 10:27:53;;;;;;;0.57;0.43;;;;;;;21.13;77.84;99695.38;20852438;28;20056;-59
2023/09/22 10:38:05;;;;;;;0.60;0.60;;;;;;;21.20;77.34;99700.84;20851134;28;20059;-59
2023/09/22 10:48:11;;;;;;;0.98;0.55;;;;;;;21.18;76.80;99710.22;20829107;28;20092;-59
2023/09/22 10:58:18;;;;;;;1.25;0.70;;;;;;;21.11;76.51;99702.00;20829764;28;20050;-58
2023/09/22 11:08:20;;;;;;;0.52;0.47;;;;;;;21.06;76.32;99715.25;20804577;28;20042;-59
2023/09/22 11:18:35;;;;;;;1.60;0.60;;;;;;;21.07;76.21;99723.19;20827752;28;20059;-59
2023/09/22 11:28:41;;;;;;;1.10;0.40;;;;;;;21.06;76.21;99737.75;20841541;28;20767;-58
2023/09/22 11:38:52;;;;;;;0.63;0.50;;;;;;;20.99;76.33;99753.88;20883099;28;20055;-58
2023/09/22 11:49:00;;;;;;;0.40;0.40;;;;;;;20.94;76.40;99763.56;20884547;28;20463;-59
2023/09/22 11:59:08;;;;;;;1.45;0.45;;;;;;;20.89;76.51;99774.09;20883175;28;20048;-59
2023/09/22 12:09:11;;;;;;;0.68;0.40;;;;;;;20.88;76.45;99784.09;20882476;28;20052;-58
2023/09/22 12:19:14;;;;;;;0.50;0.50;;;;;;;20.88;76.37;99791.34;20861814;28;20580;-58
2023/09/22 12:29:16;;;;;;;0.90;0.60;;;;;;;20.86;76.20;99802.38;20854533;28;20051;-58
2023/09/22 12:39:18;;;;;;;0.50;0.40;;;;;;;20.83;76.08;99819.78;20878652;28;20052;-59
2023/09/22 12:49:20;;;;;;;0.63;0.50;;;;;;;20.78;76.18;99832.16;20862165;28;20084;-59
2023/09/22 12:59:21;;;;;;;0.47;0.35;;;;;;;20.66;76.14;99821.75;20824573;28;20044;-59
2023/09/22 13:09:27;;;;;;;0.63;0.40;;;;;;;20.68;75.77;99841.34;20859563;28;20049;-58
2023/09/22 13:19:31;;;;;;;1.45;0.50;;;;;;;20.63;75.91;99838.34;20873902;28;20076;-59
2023/09/22 13:29:33;;;;;;;;;;;;;;;20.60;75.66;99829.75;20892977;28;20156;-58
2023/09/22 13:39:34;;;;;;;0.60;0.40;;;;;;;20.57;75.82;99844.47;20877902;28;19935;-59
2023/09/22 13:49:37;;;;;;;1.83;0.60;;;;;;;20.58;75.82;99846.16;20838313;28;20064;-59
2023/09/22 13:59:39;;;;;;;0.63;0.40;;;;;;;20.59;75.74;99847.84;20876557;28;20072;-58
2023/09/22 14:09:41;;;;;;;1.30;0.70;;;;;;;20.60;75.94;99845.97;20829989;28;20489;-59
2023/09/22 14:19:43;;;;;;;4.78;0.70;;;;;;;20.60;77.05;99844.09;20848558;28;20074;-58
2023/09/22 14:29:45;;;;;;;2.88;0.88;;;;;;;20.73;78.75;99857.03;20806080;28;20053;-59
2023/09/22 14:39:47;;;;;;;2.85;0.80;;;;;;;20.77;78.52;99852.09;20809505;28;20390;-60
2023/09/22 14:49:49;;;;;;;1.48;0.52;;;;;;;20.79;78.35;99864.44;20850636;28;20068;-62
2023/09/22 14:59:51;;;;;;;3.75;1.60;;;;;;;20.89;80.58;99869.63;20813424;28;20060;-64
2023/09/22 15:09:52;;;;;;;6.28;2.00;;;;;;;21.03;83.47;99873.41;20819471;28;20420;-66
2023/09/22 15:19:56;;;;;;;2.58;1.20;;;;;;;21.03;86.87;99868.00;20831507;28;20080;-65
2023/09/22 15:29:58;;;;;;;2.75;1.00;;;;;;;21.15;88.49;99884.63;20838678;28;20469;-64
2023/09/22 15:40:06;;;;;;;5.30;2.00;;;;;;;21.15;89.71;99876.50;20842856;28;20064;-65
2023/09/22 15:50:09;;;;;;;4.78;1.38;;;;;;;21.24;90.99;99907.91;20845850;28;20050;-65
2023/09/22 16:00:12;;;;;;;4.67;1.57;;;;;;;21.23;90.89;99911.63;20836201;28;20048;-65
2023/09/22 16:10:15;;;;;;;6.40;1.27;;;;;;;21.21;90.92;99919.09;20809976;28;20049;-64
2023/09/22 16:20:17;;;;;;;4.47;1.38;;;;;;;21.17;90.29;99916.94;20813590;28;20864;-65
2023/09/22 16:30:18;;;;;;;1.83;1.00;;;;;;;21.14;89.10;99934.34;20821281;28;20056;-61
2023/09/22 16:40:20;;;;;;;2.17;0.98;;;;;;;21.08;88.55;99945.91;20799812;28;20519;-61
2023/09/22 16:50:22;;;;;;;4.38;1.10;;;;;;;20.99;86.54;99937.00;20798305;28;20052;-62
2023/09/22 17:00:24;;;;;;;3.08;1.42;;;;;;;20.92;86.09;99936.91;20818285;28;20041;-62
2023/09/22 17:10:26;;;;;;;2.75;1.10;;;;;;;20.86;85.81;99943.84;20823236;28;20056;-62
2023/09/22 17:20:30;;;;;;;7.20;2.45;;;;;;;20.83;87.28;99965.03;20812437;28;20065;-61
2023/09/22 17:30:32;;;;;;;8.70;1.40;;;;;;;20.78;87.62;99946.59;20805248;28;20159;-62
2023/09/22 17:40:45;;;;;;;7.75;1.33;;;;;;;20.81;87.43;99962.50;20795899;28;20053;-62
2023/09/22 17:50:47;;;;;;;7.13;1.73;;;;;;;20.80;87.22;99965.41;20801748;28;20579;-62
2023/09/22 18:00:49;;;;;;;2.90;1.02;;;;;;;20.75;86.36;99983.97;20817663;28;20127;-62
2023/09/22 18:10:51;;;;;;;5.97;1.00;;;;;;;20.70;85.79;99982.63;20822046;28;20476;-62
2023/09/22 18:20:53;;;;;;;4.43;1.15;;;;;;;20.67;85.09;99998.38;20854148;28;20535;-62
2023/09/22 18:30:55;;;;;;;4.28;1.25;;;;;;;20.63;84.50;100019.53;20834544;28;20493;-62
2023/09/22 18:40:57;;;;;;;4.63;0.90;;;;;;;20.60;83.99;100030.69;20835845;28;20195;-62
2023/09/22 18:50:59;;;;;;;2.17;0.90;;;;;;;20.55;83.59;100031.22;20845026;28;20049;-62
2023/09/22 19:01:03;;;;;;;2.88;1.08;;;;;;;20.53;83.36;100043.22;20845550;28;20049;-62
2023/09/22 19:11:05;;;;;;;1.93;0.90;;;;;;;20.50;83.12;100043.59;20843548;28;20128;-62
2023/09/22 19:21:07;;;;;;;1.73;0.80;;;;;;;20.50;83.05;100059.81;20838245;28;20126;-62
2023/09/22 19:31:09;;;;;;;2.25;0.70;;;;;;;20.50;82.92;100051.69;20849480;28;20048;-62
2023/09/22 19:41:11;;;;;;;1.92;0.85;;;;;;;20.50;82.78;100054.41;20844474;28;20064;-62
2023/09/22 19:51:14;;;;;;;0.98;0.70;;;;;;;20.50;82.53;100070.63;20844812;28;20060;-62
2023/09/22 20:01:16;;;;;;;1.17;0.80;;;;;;;20.49;82.26;100085.16;20840702;28;20072;-62
2023/09/22 20:11:18;;;;;;;1.83;0.85;;;;;;;20.48;81.95;100091.59;20839022;28;20045;-62
2023/09/22 20:21:20;;;;;;;1.10;0.75;;;;;;;20.45;81.76;100087.34;20830848;28;20421;-62
2023/09/22 20:31:22;;;;;;;1.80;0.65;;;;;;;20.43;81.56;100086.69;20826266;28;20489;-62
2023/09/22 20:41:26;;;;;;;1.75;0.82;;;;;;;20.42;81.43;100093.97;20843577;28;20052;-62
2023/09/22 20:51:28;;;;;;;1.10;0.80;;;;;;;20.40;81.45;100089.72;20816422;28;20053;-62
2023/09/22 21:01:29;;;;;;;1.25;0.73;;;;;;;20.39;81.19;100110.53;20836016;28;20055;-62
2023/09/22 21:11:31;;;;;;;1.23;0.90;;;;;;;20.38;80.99;100107.97;20837884;28;20053;-62
2023/09/22 21:21:33;;;;;;;1.45;0.90;;;;;;;20.36;80.92;100118.97;20837768;28;20061;-62
2023/09/22 21:31:36;;;;;;;1.05;0.80;;;;;;;20.26;80.28;100119.16;20840166;28;20073;-62
2023/09/22 21:41:38;;;;;;;0.95;0.85;;;;;;;20.29;80.11;100139.56;20836783;28;20102;-62
2023/09/22 21:51:41;;;;;;;0.68;0.68;;;;;;;20.27;80.02;100144.31;20842710;28;20056;-62
2023/09/22 22:01:43;;;;;;;1.33;0.85;;;;;;;20.26;79.83;100159.69;20846242;28;20075;-62
2023/09/22 22:11:45;;;;;;;2.25;1.08;;;;;;;20.25;79.82;100162.56;20850807;28;20459;-62
2023/09/22 22:21:47;;;;;;;1.98;0.90;;;;;;;20.23;79.62;100164.59;20847089;28;20045;-62
2023/09/22 22:31:49;;;;;;;1.05;0.95;;;;;;;20.23;79.48;100170.00;20847392;28;20107;-62
2023/09/22 22:41:51;;;;;;;1.33;0.73;;;;;;;20.23;79.33;100186.22;20858232;28;20049;-62
2023/09/22 22:51:53;;;;;;;1.15;0.68;;;;;;;20.20;79.04;100187.41;20842865;28;20049;-62
2023/09/22 23:01:55;;;;;;;1.02;0.60;;;;;;;20.21;78.81;100190.94;20845397;28;20049;-62
2023/09/22 23:11:57;;;;;;;1.23;1.10;;;;;;;20.18;78.89;100188.56;20842930;28;20051;-62
2023/09/22 23:21:59;;;;;;;1.55;0.70;;;;;;;20.18;78.70;100193.97;20843371;28;20092;-62
2023/09/22 23:32:01;;;;;;;0.93;0.63;;;;;;;20.17;78.47;100203.09;20845013;28;20054;-61
2023/09/22 23:42:04;;;;;;;1.08;0.80;;;;;;;20.17;78.62;100203.09;20864275;28;20044;-62
2023/09/22 23:52:08;;;;;;;0.80;0.68;;;;;;;20.16;78.33;100207.69;20840345;28;20049;-62
